sensor_id;sensor_type;location;lat;lon;timestamp;pressure;altitude;pressure_sealevel;temperature;humidity
73516;BME280;61763;51.416;5.442;2022-10-26T00:01:27;101289.94;;;9.69;100.00
73516;BME280;61763;51.416;5.442;2022-10-26T00:03:54;101286.81;;;9.79;100.00
73516;BME280;61763;51.416;5.442;2022-10-26T00:06:23;101282.75;;;9.91;100.00
73516;BME280;61763;51.416;5.442;2022-10-26T00:08:54;101272.63;;;9.96;100.00
73516;BME280;61763;51.416;5.442;2022-10-26T00:11:19;101278.94;;;9.97;100.00
73516;BME280;61763;51.416;5.442;2022-10-26T00:13:45;101277.56;;;10.09;100.00
73516;BME280;61763;51.416;5.442;2022-10-26T00:16:17;101269.41;;;10.10;100.00
73516;BME280;61763;51.416;5.442;2022-10-26T00:18:43;101274.72;;;10.12;100.00
73516;BME280;61763;51.416;5.442;2022-10-26T00:21:09;101260.09;;;10.17;100.00
73516;BME280;61763;51.416;5.442;2022-10-26T00:23:35;101253.94;;;10.14;100.00
73516;BME280;61763;51.416;5.442;2022-10-26T00:26:01;101244.38;;;10.27;100.00
73516;BME280;61763;51.416;5.442;2022-10-26T00:28:26;101260.91;;;10.42;100.00
73516;BME280;61763;51.416;5.442;2022-10-26T00:30:51;101261.78;;;10.42;100.00
73516;BME280;61763;51.416;5.442;2022-10-26T00:33:17;101264.47;;;10.42;100.00
73516;BME280;61763;51.416;5.442;2022-10-26T00:35:46;101262.66;;;10.43;100.00
73516;BME280;61763;51.416;5.442;2022-10-26T00:38:12;101267.94;;;10.46;100.00
73516;BME280;61763;51.416;5.442;2022-10-26T00:40:37;101262.41;;;10.49;100.00
73516;BME280;61763;51.416;5.442;2022-10-26T00:43:03;101258.00;;;10.46;100.00
73516;BME280;61763;51.416;5.442;2022-10-26T00:45:30;101255.22;;;10.48;100.00
73516;BME280;61763;51.416;5.442;2022-10-26T00:47:58;101260.31;;;10.56;100.00
73516;BME280;61763;51.416;5.442;2022-10-26T00:50:38;101257.78;;;10.51;100.00
73516;BME280;61763;51.416;5.442;2022-10-26T00:53:06;101249.03;;;10.46;100.00
73516;BME280;61763;51.416;5.442;2022-10-26T00:55:36;101249.69;;;10.51;100.00
73516;BME280;61763;51.416;5.442;2022-10-26T00:58:05;101246.75;;;10.57;100.00
73516;BME280;61763;51.416;5.442;2022-10-26T01:00:31;101248.41;;;10.60;100.00
73516;BME280;61763;51.416;5.442;2022-10-26T01:03:00;101244.78;;;10.61;100.00
73516;BME280;61763;51.416;5.442;2022-10-26T01:05:29;101249.38;;;10.59;100.00
73516;BME280;61763;51.416;5.442;2022-10-26T01:07:55;101251.66;;;10.68;100.00
73516;BME280;61763;51.416;5.442;2022-10-26T01:10:21;101244.72;;;10.62;100.00
73516;BME280;61763;51.416;5.442;2022-10-26T01:12:49;101241.53;;;10.52;100.00
73516;BME280;61763;51.416;5.442;2022-10-26T01:15:15;101230.88;;;10.70;100.00
73516;BME280;61763;51.416;5.442;2022-10-26T01:27:56;101220.44;;;10.62;100.00
73516;BME280;61763;51.416;5.442;2022-10-26T01:30:40;101214.75;;;10.48;100.00
73516;BME280;61763;51.416;5.442;2022-10-26T01:33:09;101212.19;;;10.45;100.00
73516;BME280;61763;51.416;5.442;2022-10-26T01:35:59;101217.13;;;10.35;100.00
73516;BME280;61763;51.416;5.442;2022-10-26T01:41:12;101209.53;;;10.23;100.00
73516;BME280;61763;51.416;5.442;2022-10-26T01:43:45;101203.72;;;10.11;100.00
73516;BME280;61763;51.416;5.442;2022-10-26T01:46:15;101207.72;;;10.23;100.00
73516;BME280;61763;51.416;5.442;2022-10-26T01:48:43;101204.91;;;10.26;100.00
73516;BME280;61763;51.416;5.442;2022-10-26T01:51:10;101202.00;;;10.31;100.00
73516;BME280;61763;51.416;5.442;2022-10-26T01:53:44;101204.94;;;10.47;100.00
73516;BME280;61763;51.416;5.442;2022-10-26T01:56:17;101202.22;;;10.47;100.00
73516;BME280;61763;51.416;5.442;2022-10-26T02:20:48;101182.38;;;10.48;100.00
73516;BME280;61763;51.416;5.442;2022-10-26T02:23:15;101177.53;;;10.36;100.00
73516;BME280;61763;51.416;5.442;2022-10-26T02:25:47;101177.41;;;10.39;100.00
73516;BME280;61763;51.416;5.442;2022-10-26T02:28:18;101177.59;;;10.34;100.00
73516;BME280;61763;51.416;5.442;2022-10-26T02:30:47;101177.59;;;10.34;100.00
73516;BME280;61763;51.416;5.442;2022-10-26T02:33:15;101171.75;;;10.23;100.00
73516;BME280;61763;51.416;5.442;2022-10-26T02:35:44;101173.13;;;10.33;100.00
73516;BME280;61763;51.416;5.442;2022-10-26T02:38:12;101164.56;;;10.23;100.00
73516;BME280;61763;51.416;5.442;2022-10-26T02:40:39;101164.13;;;10.34;100.00
73516;BME280;61763;51.416;5.442;2022-10-26T02:43:10;101159.09;;;10.25;100.00
73516;BME280;61763;51.416;5.442;2022-10-26T02:45:48;101162.59;;;10.27;100.00
73516;BME280;61763;51.416;5.442;2022-10-26T02:48:15;101160.41;;;10.37;100.00
73516;BME280;61763;51.416;5.442;2022-10-26T02:53:34;101152.13;;;10.41;100.00
73516;BME280;61763;51.416;5.442;2022-10-26T02:56:07;101159.19;;;10.44;100.00
73516;BME280;61763;51.416;5.442;2022-10-26T02:58:38;101157.16;;;10.49;100.00
73516;BME280;61763;51.416;5.442;2022-10-26T03:01:05;101161.13;;;10.40;100.00
73516;BME280;61763;51.416;5.442;2022-10-26T03:03:31;101161.13;;;10.40;100.00
73516;BME280;61763;51.416;5.442;2022-10-26T03:05:57;101166.81;;;10.55;100.00
73516;BME280;61763;51.416;5.442;2022-10-26T03:08:22;101159.09;;;10.66;100.00
73516;BME280;61763;51.416;5.442;2022-10-26T03:10:48;101155.06;;;10.56;100.00
73516;BME280;61763;51.416;5.442;2022-10-26T03:13:13;101154.28;;;10.73;100.00
73516;BME280;61763;51.416;5.442;2022-10-26T03:15:39;101147.19;;;10.70;100.00
73516;BME280;61763;51.416;5.442;2022-10-26T03:18:05;101149.16;;;10.66;100.00
73516;BME280;61763;51.416;5.442;2022-10-26T03:20:31;101155.03;;;10.76;100.00
73516;BME280;61763;51.416;5.442;2022-10-26T03:22:56;101152.75;;;10.86;100.00
73516;BME280;61763;51.416;5.442;2022-10-26T03:25:25;101161.81;;;10.85;100.00
73516;BME280;61763;51.416;5.442;2022-10-26T03:27:57;101158.56;;;10.97;100.00
73516;BME280;61763;51.416;5.442;2022-10-26T03:30:24;101151.59;;;10.92;100.00
73516;BME280;61763;51.416;5.442;2022-10-26T03:32:49;101151.81;;;10.87;100.00
73516;BME280;61763;51.416;5.442;2022-10-26T03:35:15;101156.75;;;10.77;100.00
73516;BME280;61763;51.416;5.442;2022-10-26T03:37:41;101150.66;;;10.93;100.00
73516;BME280;61763;51.416;5.442;2022-10-26T03:40:07;101154.13;;;10.76;100.00
73516;BME280;61763;51.416;5.442;2022-10-26T03:42:35;101150.03;;;10.67;100.00
73516;BME280;61763;51.416;5.442;2022-10-26T03:45:00;101148.34;;;10.64;100.00
73516;BME280;61763;51.416;5.442;2022-10-26T03:47:26;101151.63;;;10.52;100.00
73516;BME280;61763;51.416;5.442;2022-10-26T03:49:51;101149.94;;;10.49;100.00
73516;BME280;61763;51.416;5.442;2022-10-26T03:52:16;101153.09;;;10.59;100.00
73516;BME280;61763;51.416;5.442;2022-10-26T03:54:42;101152.16;;;10.60;100.00
73516;BME280;61763;51.416;5.442;2022-10-26T03:57:07;101145.94;;;10.58;100.00
73516;BME280;61763;51.416;5.442;2022-10-26T03:59:32;101152.22;;;10.59;100.00
73516;BME280;61763;51.416;5.442;2022-10-26T04:01:58;101142.28;;;10.59;100.00
73516;BME280;61763;51.416;5.442;2022-10-26T04:04:23;101145.22;;;10.55;100.00
73516;BME280;61763;51.416;5.442;2022-10-26T04:06:49;101150.63;;;10.55;100.00
73516;BME280;61763;51.416;5.442;2022-10-26T04:09:14;101138.53;;;10.63;100.00
73516;BME280;61763;51.416;5.442;2022-10-26T04:11:39;101144.72;;;10.65;100.00
73516;BME280;61763;51.416;5.442;2022-10-26T04:14:04;101145.81;;;10.80;100.00
73516;BME280;61763;51.416;5.442;2022-10-26T04:16:30;101147.88;;;10.75;100.00
73516;BME280;61763;51.416;5.442;2022-10-26T04:18:55;101145.81;;;10.80;100.00
73516;BME280;61763;51.416;5.442;2022-10-26T04:21:21;101141.34;;;11.00;100.00
73516;BME280;61763;51.416;5.442;2022-10-26T04:23:46;101144.38;;;10.92;100.00
73516;BME280;61763;51.416;5.442;2022-10-26T04:26:11;101142.84;;;11.05;100.00
73516;BME280;61763;51.416;5.442;2022-10-26T04:28:37;101147.75;;;10.97;100.00
73516;BME280;61763;51.416;5.442;2022-10-26T04:31:02;101145.13;;;10.96;100.00
73516;BME280;61763;51.416;5.442;2022-10-26T04:33:27;101142.50;;;11.13;100.00
73516;BME280;61763;51.416;5.442;2022-10-26T04:36:00;101140.66;;;11.33;100.00
73516;BME280;61763;51.416;5.442;2022-10-26T04:38:25;101134.38;;;11.32;100.00
73516;BME280;61763;51.416;5.442;2022-10-26T04:40:51;101129.84;;;11.14;100.00
73516;BME280;61763;51.416;5.442;2022-10-26T04:43:16;101133.31;;;11.17;100.00
73516;BME280;61763;51.416;5.442;2022-10-26T04:45:41;101136.72;;;11.21;100.00
73516;BME280;61763;51.416;5.442;2022-10-26T04:48:10;101136.25;;;11.30;100.00
73516;BME280;61763;51.416;5.442;2022-10-26T04:50:36;101136.63;;;11.22;100.00
73516;BME280;61763;51.416;5.442;2022-10-26T04:53:08;101140.13;;;11.25;100.00
73516;BME280;61763;51.416;5.442;2022-10-26T04:55:34;101132.47;;;11.15;100.00
73516;BME280;61763;51.416;5.442;2022-10-26T04:57:59;101134.09;;;11.19;100.00
73516;BME280;61763;51.416;5.442;2022-10-26T05:00:25;101130.44;;;11.20;100.00
73516;BME280;61763;51.416;5.442;2022-10-26T05:02:51;101136.03;;;11.16;100.00
73516;BME280;61763;51.416;5.442;2022-10-26T05:05:16;101132.84;;;11.27;100.00
73516;BME280;61763;51.416;5.442;2022-10-26T05:07:41;101138.97;;;11.30;100.00
73516;BME280;61763;51.416;5.442;2022-10-26T05:10:07;101134.38;;;11.32;100.00
73516;BME280;61763;51.416;5.442;2022-10-26T05:12:33;101130.00;;;11.30;100.00
73516;BME280;61763;51.416;5.442;2022-10-26T05:14:58;101135.09;;;11.36;100.00
73516;BME280;61763;51.416;5.442;2022-10-26T05:17:24;101148.53;;;11.37;100.00
73516;BME280;61763;51.416;5.442;2022-10-26T05:19:50;101148.16;;;11.26;100.00
73516;BME280;61763;51.416;5.442;2022-10-26T05:22:24;101146.50;;;11.24;100.00
73516;BME280;61763;51.416;5.442;2022-10-26T05:24:50;101143.72;;;11.25;100.00
73516;BME280;61763;51.416;5.442;2022-10-26T05:27:15;101149.34;;;11.20;100.00
73516;BME280;61763;51.416;5.442;2022-10-26T05:29:40;101148.69;;;11.15;100.00
73516;BME280;61763;51.416;5.442;2022-10-26T05:32:06;101155.19;;;11.11;100.00
73516;BME280;61763;51.416;5.442;2022-10-26T05:34:31;101150.69;;;11.12;100.00
73516;BME280;61763;51.416;5.442;2022-10-26T05:36:57;101153.56;;;11.26;100.00
73516;BME280;61763;51.416;5.442;2022-10-26T05:39:22;101153.22;;;11.15;100.00
73516;BME280;61763;51.416;5.442;2022-10-26T05:41:47;101146.06;;;11.14;100.00
73516;BME280;61763;51.416;5.442;2022-10-26T05:44:13;101147.97;;;11.12;100.00
73516;BME280;61763;51.416;5.442;2022-10-26T05:46:38;101147.97;;;11.12;100.00
73516;BME280;61763;51.416;5.442;2022-10-26T05:49:03;101150.38;;;11.18;100.00
73516;BME280;61763;51.416;5.442;2022-10-26T05:51:28;101153.78;;;11.21;100.00
73516;BME280;61763;51.416;5.442;2022-10-26T05:53:54;101159.50;;;11.15;100.00
73516;BME280;61763;51.416;5.442;2022-10-26T05:56:35;101162.19;;;11.15;100.00
73516;BME280;61763;51.416;5.442;2022-10-26T05:59:01;101156.16;;;11.10;100.00
73516;BME280;61763;51.416;5.442;2022-10-26T06:06:53;101164.91;;;11.15;100.00
73516;BME280;61763;51.416;5.442;2022-10-26T06:09:19;101170.44;;;11.12;100.00
73516;BME280;61763;51.416;5.442;2022-10-26T06:11:45;101179.72;;;11.07;100.00
73516;BME280;61763;51.416;5.442;2022-10-26T06:14:11;101175.47;;;11.01;100.00
73516;BME280;61763;51.416;5.442;2022-10-26T06:24:59;101178.69;;;10.90;100.00
73516;BME280;61763;51.416;5.442;2022-10-26T06:30:17;101171.03;;;11.00;100.00
73516;BME280;61763;51.416;5.442;2022-10-26T06:32:45;101169.06;;;11.22;100.00
73516;BME280;61763;51.416;5.442;2022-10-26T06:37:45;101160.50;;;11.13;100.00
73516;BME280;61763;51.416;5.442;2022-10-26T06:40:14;101166.66;;;11.35;100.00
73516;BME280;61763;51.416;5.442;2022-10-26T06:42:40;101166.13;;;11.46;100.00
73516;BME280;61763;51.416;5.442;2022-10-26T06:45:11;101166.28;;;11.43;100.00
73516;BME280;61763;51.416;5.442;2022-10-26T06:48:28;101157.16;;;11.46;100.00
73516;BME280;61763;51.416;5.442;2022-10-26T06:50:53;101162.28;;;11.69;100.00
73516;BME280;61763;51.416;5.442;2022-10-26T06:53:27;101165.47;;;11.78;100.00
73516;BME280;61763;51.416;5.442;2022-10-26T06:55:57;101156.72;;;11.72;100.00
73516;BME280;61763;51.416;5.442;2022-10-26T06:58:26;101149.38;;;11.74;100.00
73516;BME280;61763;51.416;5.442;2022-10-26T07:00:54;101151.72;;;11.82;100.00
73516;BME280;61763;51.416;5.442;2022-10-26T07:03:20;101158.84;;;11.66;100.00
73516;BME280;61763;51.416;5.442;2022-10-26T07:05:46;101172.19;;;11.51;100.00
73516;BME280;61763;51.416;5.442;2022-10-26T07:08:12;101166.56;;;11.37;100.00
73516;BME280;61763;51.416;5.442;2022-10-26T07:10:38;101173.78;;;11.36;100.00
73516;BME280;61763;51.416;5.442;2022-10-26T07:13:07;101181.41;;;11.28;100.00
73516;BME280;61763;51.416;5.442;2022-10-26T07:15:34;101190.97;;;11.16;100.00
73516;BME280;61763;51.416;5.442;2022-10-26T07:18:02;101198.41;;;11.11;100.00
73516;BME280;61763;51.416;5.442;2022-10-26T07:20:30;101189.72;;;11.04;100.00
73516;BME280;61763;51.416;5.442;2022-10-26T07:22:56;101187.81;;;11.07;100.00
73516;BME280;61763;51.416;5.442;2022-10-26T07:25:24;101200.53;;;11.04;100.00
73516;BME280;61763;51.416;5.442;2022-10-26T07:27:49;101202.31;;;11.04;100.00
73516;BME280;61763;51.416;5.442;2022-10-26T07:30:15;101202.25;;;11.05;100.00
73516;BME280;61763;51.416;5.442;2022-10-26T07:32:41;101199.38;;;11.10;100.00
73516;BME280;61763;51.416;5.442;2022-10-26T07:35:06;101213.66;;;11.12;100.00
73516;BME280;61763;51.416;5.442;2022-10-26T07:37:32;101207.91;;;11.20;100.00
73516;BME280;61763;51.416;5.442;2022-10-26T07:39:57;101217.91;;;11.37;100.00
73516;BME280;61763;51.416;5.442;2022-10-26T07:42:22;101228.13;;;11.49;100.00
73516;BME280;61763;51.416;5.442;2022-10-26T07:44:48;101226.88;;;11.56;100.00
73516;BME280;61763;51.416;5.442;2022-10-26T07:47:13;101236.44;;;11.64;100.00
73516;BME280;61763;51.416;5.442;2022-10-26T07:49:39;101251.78;;;11.82;100.00
73516;BME280;61763;51.416;5.442;2022-10-26T07:52:04;101248.25;;;11.99;100.00
73516;BME280;61763;51.416;5.442;2022-10-26T07:54:30;101246.69;;;12.13;100.00
73516;BME280;61763;51.416;5.442;2022-10-26T07:56:56;101246.72;;;12.30;100.00
73516;BME280;61763;51.416;5.442;2022-10-26T07:59:22;101236.38;;;12.38;100.00
73516;BME280;61763;51.416;5.442;2022-10-26T08:01:47;101240.28;;;12.50;100.00
73516;BME280;61763;51.416;5.442;2022-10-26T08:04:14;101244.72;;;12.69;100.00
73516;BME280;61763;51.416;5.442;2022-10-26T08:06:39;101247.91;;;12.77;100.00
73516;BME280;61763;51.416;5.442;2022-10-26T08:09:05;101253.63;;;12.88;100.00
73516;BME280;61763;51.416;5.442;2022-10-26T08:11:30;101257.34;;;13.03;100.00
73516;BME280;61763;51.416;5.442;2022-10-26T08:13:56;101258.59;;;13.13;100.00
73516;BME280;61763;51.416;5.442;2022-10-26T08:16:21;101252.63;;;13.40;100.00
73516;BME280;61763;51.416;5.442;2022-10-26T08:18:48;101259.56;;;13.62;100.00
73516;BME280;61763;51.416;5.442;2022-10-26T08:21:13;101260.88;;;13.87;100.00
73516;BME280;61763;51.416;5.442;2022-10-26T08:23:39;101263.38;;;14.22;100.00
73516;BME280;61763;51.416;5.442;2022-10-26T08:26:06;101260.09;;;14.31;100.00
73516;BME280;61763;51.416;5.442;2022-10-26T08:28:31;101259.53;;;14.56;100.00
73516;BME280;61763;51.416;5.442;2022-10-26T08:30:57;101260.19;;;14.60;100.00
73516;BME280;61763;51.416;5.442;2022-10-26T08:33:23;101265.28;;;14.66;100.00
73516;BME280;61763;51.416;5.442;2022-10-26T08:35:57;101263.56;;;14.79;99.94
73516;BME280;61763;51.416;5.442;2022-10-26T08:38:23;101263.41;;;14.97;99.70
73516;BME280;61763;51.416;5.442;2022-10-26T08:40:49;101263.41;;;14.97;99.87
73516;BME280;61763;51.416;5.442;2022-10-26T08:43:23;101262.81;;;15.20;98.54
73516;BME280;61763;51.416;5.442;2022-10-26T08:45:54;101272.94;;;15.33;98.50
73516;BME280;61763;51.416;5.442;2022-10-26T08:48:43;101274.31;;;15.40;97.60
73516;BME280;61763;51.416;5.442;2022-10-26T08:53:51;101267.47;;;15.62;97.15
73516;BME280;61763;51.416;5.442;2022-10-26T08:56:34;101256.75;;;15.87;95.28
73516;BME280;61763;51.416;5.442;2022-10-26T09:01:53;101248.16;;;16.21;93.26
73516;BME280;61763;51.416;5.442;2022-10-26T09:04:23;101257.50;;;16.44;92.22
73516;BME280;61763;51.416;5.442;2022-10-26T09:13:17;101272.38;;;16.66;91.74
73516;BME280;61763;51.416;5.442;2022-10-26T09:18:43;101282.81;;;16.99;88.64
73516;BME280;61763;51.416;5.442;2022-10-26T09:24:01;101305.25;;;17.03;88.58
73516;BME280;61763;51.416;5.442;2022-10-26T09:29:40;101298.63;;;17.20;87.36
73516;BME280;61763;51.416;5.442;2022-10-26T09:32:14;101315.31;;;17.28;87.57
73516;BME280;61763;51.416;5.442;2022-10-26T09:34:52;101310.41;;;17.33;87.12
73516;BME280;61763;51.416;5.442;2022-10-26T09:37:24;101335.50;;;17.51;86.41
73516;BME280;61763;51.416;5.442;2022-10-26T09:39:53;101324.69;;;17.49;85.45
73516;BME280;61763;51.416;5.442;2022-10-26T09:42:26;101325.66;;;17.48;86.02
73516;BME280;61763;51.416;5.442;2022-10-26T09:44:57;101333.94;;;17.60;86.15
73516;BME280;61763;51.416;5.442;2022-10-26T09:47:39;101324.88;;;17.72;86.51
73516;BME280;61763;51.416;5.442;2022-10-26T09:50:31;101336.78;;;17.71;85.26
73516;BME280;61763;51.416;5.442;2022-10-26T09:52:58;101336.34;;;17.77;84.48
73516;BME280;61763;51.416;5.442;2022-10-26T09:55:24;101335.72;;;17.61;86.61
73516;BME280;61763;51.416;5.442;2022-10-26T09:57:54;101341.16;;;17.61;85.32
73516;BME280;61763;51.416;5.442;2022-10-26T10:00:22;101348.16;;;17.52;86.25
73516;BME280;61763;51.416;5.442;2022-10-26T10:02:53;101353.47;;;17.66;86.41
73516;BME280;61763;51.416;5.442;2022-10-26T10:05:34;101360.34;;;17.72;85.83
73516;BME280;61763;51.416;5.442;2022-10-26T10:08:22;101361.44;;;17.69;85.86
73516;BME280;61763;51.416;5.442;2022-10-26T10:11:09;101363.63;;;17.77;86.20
73516;BME280;61763;51.416;5.442;2022-10-26T10:13:37;101361.31;;;17.97;84.93
73516;BME280;61763;51.416;5.442;2022-10-26T10:18:38;101376.25;;;18.17;84.96
73516;BME280;61763;51.416;5.442;2022-10-26T10:21:04;101387.28;;;18.15;85.00
73516;BME280;61763;51.416;5.442;2022-10-26T10:23:33;101388.00;;;18.30;83.45
73516;BME280;61763;51.416;5.442;2022-10-26T10:28:26;101390.47;;;18.46;82.98
73516;BME280;61763;51.416;5.442;2022-10-26T10:30:53;101388.94;;;18.66;82.31
73516;BME280;61763;51.416;5.442;2022-10-26T10:33:19;101393.94;;;18.72;82.24
73516;BME280;61763;51.416;5.442;2022-10-26T10:35:51;101401.00;;;18.88;81.51
73516;BME280;61763;51.416;5.442;2022-10-26T10:38:20;101401.19;;;18.98;80.61
73516;BME280;61763;51.416;5.442;2022-10-26T10:40:57;101410.84;;;18.90;80.31
73516;BME280;61763;51.416;5.442;2022-10-26T10:43:24;101415.13;;;18.82;80.19
73516;BME280;61763;51.416;5.442;2022-10-26T10:45:53;101411.50;;;18.81;80.40
73516;BME280;61763;51.416;5.442;2022-10-26T10:48:23;101416.47;;;18.76;81.11
73516;BME280;61763;51.416;5.442;2022-10-26T10:55:54;101426.13;;;18.69;81.59
73516;BME280;61763;51.416;5.442;2022-10-26T10:58:34;101420.72;;;18.80;81.50
73516;BME280;61763;51.416;5.442;2022-10-26T11:01:02;101424.19;;;19.06;81.83
73516;BME280;61763;51.416;5.442;2022-10-26T11:03:40;101431.72;;;19.16;79.84
73516;BME280;61763;51.416;5.442;2022-10-26T11:08:53;101444.09;;;18.84;80.85
73516;BME280;61763;51.416;5.442;2022-10-26T11:11:41;101445.25;;;18.69;81.67
73516;BME280;61763;51.416;5.442;2022-10-26T11:17:15;101441.59;;;18.81;81.83
73516;BME280;61763;51.416;5.442;2022-10-26T11:19:59;101451.03;;;18.77;82.80
73516;BME280;61763;51.416;5.442;2022-10-26T11:22:30;101455.97;;;18.72;82.24
73516;BME280;61763;51.416;5.442;2022-10-26T11:25:02;101460.94;;;18.54;84.17
73516;BME280;61763;51.416;5.442;2022-10-26T11:27:34;101462.41;;;18.71;83.48
73516;BME280;61763;51.416;5.442;2022-10-26T11:30:06;101446.94;;;18.83;82.35
73516;BME280;61763;51.416;5.442;2022-10-26T11:32:43;101457.19;;;19.16;82.53
73516;BME280;61763;51.416;5.442;2022-10-26T11:40:25;101463.16;;;19.92;78.01
73516;BME280;61763;51.416;5.442;2022-10-26T11:45:40;101458.69;;;20.14;77.41
73516;BME280;61763;51.416;5.442;2022-10-26T11:50:44;101471.84;;;19.98;78.33
73516;BME280;61763;51.416;5.442;2022-10-26T11:53:17;101472.00;;;19.85;76.42
73516;BME280;61763;51.416;5.442;2022-10-26T11:55:52;101467.88;;;19.79;77.98
73516;BME280;61763;51.416;5.442;2022-10-26T11:58:22;101469.38;;;19.83;77.62
73516;BME280;61763;51.416;5.442;2022-10-26T12:00:59;101468.75;;;19.91;75.95
73516;BME280;61763;51.416;5.442;2022-10-26T12:03:31;101471.25;;;20.05;75.09
73516;BME280;61763;51.416;5.442;2022-10-26T12:05:57;101471.88;;;20.20;75.96
73516;BME280;61763;51.416;5.442;2022-10-26T12:08:26;101460.53;;;20.13;76.59
73516;BME280;61763;51.416;5.442;2022-10-26T12:13:31;101481.22;;;20.29;75.85
73516;BME280;61763;51.416;5.442;2022-10-26T12:16:15;101492.53;;;20.13;75.21
73516;BME280;61763;51.416;5.442;2022-10-26T12:18:50;101490.03;;;19.99;76.28
73516;BME280;61763;51.416;5.442;2022-10-26T12:21:18;101491.91;;;19.87;77.34
73516;BME280;61763;51.416;5.442;2022-10-26T12:29:45;101491.53;;;19.91;74.71
73516;BME280;61763;51.416;5.442;2022-10-26T12:39:48;101490.56;;;20.38;70.94
73516;BME280;61763;51.416;5.442;2022-10-26T12:47:08;101506.13;;;20.26;70.15
73516;BME280;61763;51.416;5.442;2022-10-26T13:00:21;101494.91;;;20.40;69.73
73516;BME280;61763;51.416;5.442;2022-10-26T13:08:47;101499.78;;;20.48;68.33
73516;BME280;61763;51.416;5.442;2022-10-26T13:11:33;101505.25;;;20.37;68.11
73516;BME280;61763;51.416;5.442;2022-10-26T13:14:01;101507.13;;;20.25;68.08
73516;BME280;61763;51.416;5.442;2022-10-26T13:16:28;101505.75;;;20.19;69.99
73516;BME280;61763;51.416;5.442;2022-10-26T13:18:54;101510.00;;;20.35;69.40
73516;BME280;61763;51.416;5.442;2022-10-26T13:21:22;101506.75;;;20.29;69.75
73516;BME280;61763;51.416;5.442;2022-10-26T13:26:27;101514.50;;;20.24;70.30
73516;BME280;61763;51.416;5.442;2022-10-26T13:34:16;101533.78;;;20.11;70.20
73516;BME280;61763;51.416;5.442;2022-10-26T13:37:20;101540.63;;;20.06;70.41
73516;BME280;61763;51.416;5.442;2022-10-26T13:39:49;101536.75;;;20.08;68.97
73516;BME280;61763;51.416;5.442;2022-10-26T13:42:19;101534.84;;;19.98;69.26
73516;BME280;61763;51.416;5.442;2022-10-26T13:44:58;101537.34;;;19.89;69.10
73516;BME280;61763;51.416;5.442;2022-10-26T13:50:17;101531.59;;;19.81;68.80
73516;BME280;61763;51.416;5.442;2022-10-26T13:52:49;101532.78;;;19.77;69.80
73516;BME280;61763;51.416;5.442;2022-10-26T13:55:28;101537.75;;;19.72;71.20
73516;BME280;61763;51.416;5.442;2022-10-26T14:00:29;101528.00;;;19.81;70.61
73516;BME280;61763;51.416;5.442;2022-10-26T14:02:55;101520.47;;;19.71;70.88
73516;BME280;61763;51.416;5.442;2022-10-26T14:05:21;101537.75;;;19.72;70.62
73516;BME280;61763;51.416;5.442;2022-10-26T14:07:53;101537.25;;;19.67;70.75
73516;BME280;61763;51.416;5.442;2022-10-26T14:10:39;101553.03;;;19.63;72.44
73516;BME280;61763;51.416;5.442;2022-10-26T14:13:08;101545.94;;;19.60;71.55
73516;BME280;61763;51.416;5.442;2022-10-26T14:15:34;101546.09;;;19.70;72.07
73516;BME280;61763;51.416;5.442;2022-10-26T14:18:02;101554.91;;;19.63;71.88
73516;BME280;61763;51.416;5.442;2022-10-26T14:20:29;101560.41;;;19.63;72.49
73516;BME280;61763;51.416;5.442;2022-10-26T14:22:55;101569.06;;;19.56;72.49
73516;BME280;61763;51.416;5.442;2022-10-26T14:25:24;101570.44;;;19.51;73.34
73516;BME280;61763;51.416;5.442;2022-10-26T14:27:50;101568.31;;;19.54;72.45
73516;BME280;61763;51.416;5.442;2022-10-26T14:30:22;101582.59;;;19.47;72.08
73516;BME280;61763;51.416;5.442;2022-10-26T14:32:49;101589.06;;;19.46;72.02
73516;BME280;61763;51.416;5.442;2022-10-26T14:35:15;101590.81;;;19.47;71.54
73516;BME280;61763;51.416;5.442;2022-10-26T14:37:47;101592.66;;;19.46;71.69
73516;BME280;61763;51.416;5.442;2022-10-26T14:40:20;101597.31;;;19.33;71.99
73516;BME280;61763;51.416;5.442;2022-10-26T14:42:49;101596.81;;;19.28;73.25
73516;BME280;61763;51.416;5.442;2022-10-26T14:45:27;101603.38;;;19.25;72.75
73516;BME280;61763;51.416;5.442;2022-10-26T14:47:53;101608.25;;;19.33;72.00
73516;BME280;61763;51.416;5.442;2022-10-26T14:50:20;101617.91;;;19.25;73.42
73516;BME280;61763;51.416;5.442;2022-10-26T14:52:52;101617.75;;;19.40;71.78
73516;BME280;61763;51.416;5.442;2022-10-26T14:55:19;101618.97;;;19.36;72.21
73516;BME280;61763;51.416;5.442;2022-10-26T14:57:46;101623.41;;;19.25;72.66
73516;BME280;61763;51.416;5.442;2022-10-26T15:02:38;101627.41;;;19.08;73.90
73516;BME280;61763;51.416;5.442;2022-10-26T15:05:28;101623.94;;;18.94;74.07
73516;BME280;61763;51.416;5.442;2022-10-26T15:07:54;101621.56;;;18.89;74.10
73516;BME280;61763;51.416;5.442;2022-10-26T15:13:24;101634.31;;;18.76;74.36
73516;BME280;61763;51.416;5.442;2022-10-26T15:15:54;101641.88;;;18.72;74.26
73516;BME280;61763;51.416;5.442;2022-10-26T15:18:25;101640.56;;;18.65;74.81
73516;BME280;61763;51.416;5.442;2022-10-26T15:20:51;101648.13;;;18.61;75.16
73516;BME280;61763;51.416;5.442;2022-10-26T15:23:19;101652.91;;;18.58;75.31
73516;BME280;61763;51.416;5.442;2022-10-26T15:25:56;101652.38;;;18.52;76.45
73516;BME280;61763;51.416;5.442;2022-10-26T15:28:31;101664.94;;;18.55;76.06
73516;BME280;61763;51.416;5.442;2022-10-26T15:36:31;101684.06;;;18.55;76.33
73516;BME280;61763;51.416;5.442;2022-10-26T15:38:57;101689.13;;;18.48;77.26
73516;BME280;61763;51.416;5.442;2022-10-26T15:41:30;101683.63;;;18.35;78.01